Time;durP1;ratioP1;P1;durP2;ratioP2;P2;SDS_P1;SDS_P2;PMS_P1;PMS_P2;Temp;Humidity;BMP_temperature;BMP_pressure;BME280_temperature;BME280_humidity;BME280_pressure;Samples;Min_cycle;Max_cycle;Signal;HPM_P1;HPM_P2
2023/08/13 00:02:07;;;;;;;9.60;4.07;;;;;;;18.61;100.00;100669.59;4969495;28;20618;-71
2023/08/13 00:04:33;;;;;;;7.13;3.75;;;;;;;18.62;100.00;100675.88;4988773;28;20320;-71
2023/08/13 00:07:00;;;;;;;6.13;3.70;;;;;;;18.66;100.00;100682.97;4990283;28;20296;-71
2023/08/13 00:09:26;;;;;;;4.88;3.60;;;;;;;18.56;100.00;100665.22;4988211;28;20295;-71
2023/08/13 00:11:53;;;;;;;4.67;3.57;;;;;;;18.46;100.00;100673.41;4983900;28;20205;-71
2023/08/13 00:14:20;;;;;;;6.53;3.40;;;;;;;18.55;100.00;100677.72;4972400;28;20220;-71
2023/08/13 00:16:47;;;;;;;4.55;4.10;;;;;;;18.52;100.00;100668.84;4990203;28;20223;-71
2023/08/13 00:19:15;;;;;;;4.68;3.58;;;;;;;18.42;100.00;100666.31;4981608;28;20205;-71
2023/08/13 00:21:41;;;;;;;4.72;3.40;;;;;;;18.32;100.00;100651.22;4988121;28;20197;-71
2023/08/13 00:24:23;;;;;;;5.47;3.42;;;;;;;18.30;100.00;100655.72;4989476;28;20201;-71
2023/08/13 00:26:50;;;;;;;5.28;3.72;;;;;;;18.23;100.00;100661.19;4990421;28;20279;-71
2023/08/13 00:29:16;;;;;;;6.07;3.63;;;;;;;18.25;100.00;100670.09;4983941;28;20206;-71
2023/08/13 00:31:43;;;;;;;8.93;3.58;;;;;;;18.18;100.00;100680.03;4983097;28;20308;-71
2023/08/13 00:34:09;;;;;;;5.32;3.17;;;;;;;18.12;100.00;100664.03;4989177;28;20311;-71
2023/08/13 00:36:35;;;;;;;5.57;3.30;;;;;;;18.14;100.00;100670.25;4972467;28;20211;-71
2023/08/13 00:39:04;;;;;;;5.53;3.70;;;;;;;18.04;100.00;100682.00;4989401;28;20586;-71
2023/08/13 00:41:30;;;;;;;5.32;3.10;;;;;;;18.01;100.00;100684.69;4988256;28;20244;-71
2023/08/13 00:43:57;;;;;;;5.43;3.60;;;;;;;17.91;100.00;100675.88;4994514;28;20201;-71
2023/08/13 00:46:23;;;;;;;4.60;3.13;;;;;;;17.91;100.00;100666.97;4988228;28;20224;-71
2023/08/13 00:48:59;;;;;;;7.37;3.13;;;;;;;17.79;100.00;100674.25;4989678;28;20728;-71
2023/08/13 00:51:26;;;;;;;5.05;3.22;;;;;;;17.78;100.00;100676.94;4981193;28;20215;-71
2023/08/13 00:53:53;;;;;;;8.00;4.47;;;;;;;17.70;100.00;100671.69;4987770;28;20315;-71
2023/08/13 00:56:22;;;;;;;4.45;3.30;;;;;;;17.63;100.00;100667.28;4989300;28;20804;-71
2023/08/13 00:58:49;;;;;;;7.80;3.50;;;;;;;17.55;100.00;100658.41;4991806;28;20686;-71
2023/08/13 01:01:15;;;;;;;4.93;3.63;;;;;;;17.58;100.00;100663.72;4992571;28;20205;-71
2023/08/13 01:03:42;;;;;;;6.87;3.37;;;;;;;17.55;100.00;100664.66;4988996;28;20275;-71
2023/08/13 01:06:21;;;;;;;4.70;3.30;;;;;;;17.50;100.00;100668.28;4975719;28;20712;-71
2023/08/13 01:09:12;;;;;;;4.40;3.30;;;;;;;17.38;100.00;100671.97;4985667;28;20211;-71
2023/08/13 01:12:03;;;;;;;4.47;3.50;;;;;;;17.31;100.00;100689.00;4991837;28;20215;-71
2023/08/13 01:14:35;;;;;;;5.77;3.27;;;;;;;17.22;100.00;100689.09;4973045;28;20647;-71
2023/08/13 01:17:03;;;;;;;4.33;3.50;;;;;;;17.12;100.00;100690.06;4993162;28;20263;-71
2023/08/13 01:19:30;;;;;;;4.97;3.17;;;;;;;17.03;100.00;100688.34;4992765;28;20299;-71
2023/08/13 01:21:56;;;;;;;3.80;3.30;;;;;;;16.98;100.00;100687.50;4984520;28;20251;-71
2023/08/13 01:24:22;;;;;;;5.70;3.53;;;;;;;16.94;100.00;100691.09;4978612;28;20317;-71
2023/08/13 01:26:58;;;;;;;3.73;3.30;;;;;;;16.95;100.00;100686.66;4987946;28;20211;-71
2023/08/13 01:29:46;;;;;;;6.07;3.10;;;;;;;16.95;100.00;100683.97;4992732;28;20209;-71
2023/08/13 01:32:15;;;;;;;5.87;3.40;;;;;;;16.91;100.00;100689.34;4986153;28;20209;-71
2023/08/13 01:34:44;;;;;;;6.13;3.73;;;;;;;16.92;100.00;100675.06;4990429;28;20307;-71
2023/08/13 01:37:12;;;;;;;7.10;3.83;;;;;;;17.04;100.00;100671.41;4992082;28;20669;-71
2023/08/13 01:39:39;;;;;;;6.07;4.10;;;;;;;17.18;100.00;100669.47;4983327;28;20283;-71
2023/08/13 01:42:06;;;;;;;5.40;3.83;;;;;;;17.20;100.00;100662.31;4992334;28;20251;-71
2023/08/13 01:44:33;;;;;;;5.97;3.80;;;;;;;17.10;100.00;100665.97;4984942;28;20278;-71
2023/08/13 01:46:59;;;;;;;6.83;3.60;;;;;;;17.04;100.00;100670.50;4989051;28;20213;-71
2023/08/13 01:49:25;;;;;;;5.80;3.70;;;;;;;16.98;100.00;100676.81;4990767;28;20201;-71
2023/08/13 01:51:52;;;;;;;8.27;4.57;;;;;;;16.95;100.00;100660.78;4992371;28;20196;-71
2023/08/13 01:54:18;;;;;;;7.70;3.67;;;;;;;16.88;100.00;100670.66;4989100;28;20221;-71
2023/08/13 01:56:45;;;;;;;6.43;3.53;;;;;;;16.90;100.00;100670.63;4992078;28;20200;-71
2023/08/13 01:59:11;;;;;;;5.40;3.70;;;;;;;16.91;100.00;100675.97;4991842;28;20655;-71
2023/08/13 02:01:38;;;;;;;6.10;3.60;;;;;;;16.88;100.00;100676.00;4991860;28;20206;-71
2023/08/13 02:04:04;;;;;;;6.00;3.40;;;;;;;16.84;100.00;100674.25;4989779;28;20219;-71
2023/08/13 02:06:33;;;;;;;6.27;3.57;;;;;;;16.82;100.00;100673.38;4989717;28;20252;-71
2023/08/13 02:09:00;;;;;;;5.30;3.40;;;;;;;16.81;100.00;100671.59;4991049;28;20211;-71
2023/08/13 02:11:26;;;;;;;4.30;3.47;;;;;;;16.83;100.00;100669.81;4974542;28;20248;-71
2023/08/13 02:13:52;;;;;;;5.23;4.03;;;;;;;16.89;100.00;100671.53;4991684;28;20204;-71
2023/08/13 02:16:19;;;;;;;4.63;3.80;;;;;;;16.91;100.00;100673.28;4988919;28;20228;-71
2023/08/13 02:18:45;;;;;;;4.20;3.80;;;;;;;16.97;100.00;100668.78;4991634;28;20201;-71
2023/08/13 02:21:12;;;;;;;7.30;3.80;;;;;;;17.01;100.00;100674.09;4991952;28;20200;-71
2023/08/13 02:23:38;;;;;;;7.83;4.07;;;;;;;17.04;100.00;100679.44;4974391;28;20589;-71
2023/08/13 02:26:04;;;;;;;6.80;3.83;;;;;;;16.99;100.00;100673.22;4984264;28;20328;-71
2023/08/13 02:28:31;;;;;;;4.43;3.60;;;;;;;16.95;100.00;100670.59;4991136;28;20208;-71
2023/08/13 02:30:57;;;;;;;3.63;3.17;;;;;;;16.91;100.00;100669.72;4991204;28;20641;-71
2023/08/13 02:33:24;;;;;;;5.53;3.50;;;;;;;16.83;100.00;100668.91;4990885;28;20291;-71
2023/08/13 02:35:50;;;;;;;5.13;3.67;;;;;;;16.81;100.00;100671.59;4983209;28;20228;-71
2023/08/13 02:38:16;;;;;;;6.50;3.63;;;;;;;16.92;100.00;100679.53;4989736;28;20243;-71
2023/08/13 02:40:43;;;;;;;6.13;3.90;;;;;;;16.97;100.00;100677.72;4991120;28;20205;-71
2023/08/13 02:43:10;;;;;;;5.17;3.90;;;;;;;16.96;100.00;100680.41;4996250;28;20204;-71
2023/08/13 02:45:36;;;;;;;6.80;4.10;;;;;;;16.98;100.00;100678.59;4990892;28;20224;-71
2023/08/13 02:48:02;;;;;;;6.77;3.90;;;;;;;16.99;100.00;100683.94;4991514;28;20209;-70
2023/08/13 02:50:29;;;;;;;5.77;4.00;;;;;;;16.98;100.00;100678.59;4990893;28;20205;-70
2023/08/13 02:52:55;;;;;;;6.87;3.70;;;;;;;16.94;100.00;100674.16;4985967;28;20216;-71
2023/08/13 02:55:22;;;;;;;5.33;3.87;;;;;;;17.04;100.00;100683.88;4988631;28;20279;-71
2023/08/13 02:57:48;;;;;;;6.67;3.93;;;;;;;17.04;100.00;100683.88;4991034;28;20289;-70
2023/08/13 03:00:35;;;;;;;6.30;4.07;;;;;;;17.03;100.00;100684.78;4990526;28;20676;-71
2023/08/13 03:03:01;;;;;;;5.17;4.13;;;;;;;17.03;100.00;100684.78;4986616;28;20677;-70
2023/08/13 03:05:30;;;;;;;6.70;3.70;;;;;;;17.01;100.00;100679.44;4988916;28;20224;-71
2023/08/13 03:07:56;;;;;;;5.37;3.80;;;;;;;17.01;100.00;100683.91;4975866;28;20288;-71
2023/08/13 03:10:23;;;;;;;5.67;4.20;;;;;;;16.89;100.00;100684.91;4986656;28;20301;-71
2023/08/13 03:12:49;;;;;;;5.33;4.30;;;;;;;16.88;100.00;100677.78;4990455;28;20204;-70
2023/08/13 03:15:16;;;;;;;7.83;4.43;;;;;;;16.82;100.00;100676.06;4990803;28;20235;-71
2023/08/13 03:17:42;;;;;;;6.13;4.67;;;;;;;16.79;100.00;100670.69;4990861;28;20201;-70
2023/08/13 03:20:09;;;;;;;9.77;4.80;;;;;;;16.77;100.00;100676.97;4986133;28;20331;-71
2023/08/13 03:22:37;;;;;;;7.17;3.80;;;;;;;16.69;100.00;100678.81;4990643;28;20228;-71
2023/08/13 03:25:04;;;;;;;6.80;4.90;;;;;;;16.75;100.00;100674.28;4990502;28;20231;-71
2023/08/13 03:27:30;;;;;;;5.80;4.23;;;;;;;16.65;100.00;100671.66;4990307;28;20622;-71
2023/08/13 03:29:56;;;;;;;4.83;3.60;;;;;;;16.59;100.00;100670.81;4988707;28;20211;-71
2023/08/13 03:32:23;;;;;;;6.43;4.20;;;;;;;16.66;100.00;100669.00;4986993;28;20216;-71
2023/08/13 03:34:49;;;;;;;4.97;4.27;;;;;;;16.73;100.00;100664.50;4990446;28;20308;-71
2023/08/13 03:37:16;;;;;;;6.10;3.80;;;;;;;16.64;100.00;100669.91;4990590;28;20216;-71
2023/08/13 03:39:42;;;;;;;5.73;3.60;;;;;;;16.55;100.00;100660.16;4990634;28;20200;-70
2023/08/13 03:42:08;;;;;;;6.50;4.27;;;;;;;16.47;100.00;100662.88;4984713;28;20212;-71
2023/08/13 03:44:35;;;;;;;5.90;3.90;;;;;;;16.45;100.00;100663.78;4990139;28;20260;-71
2023/08/13 03:47:01;;;;;;;5.37;4.00;;;;;;;16.50;100.00;100670.00;4990648;28;20204;-71
2023/08/13 03:49:28;;;;;;;6.40;3.90;;;;;;;16.64;100.00;100675.25;4990117;28;20241;-71
2023/08/13 03:51:54;;;;;;;8.67;4.03;;;;;;;16.72;100.00;100677.00;4989811;28;20604;-71
2023/08/13 03:54:20;;;;;;;9.17;3.80;;;;;;;16.71;100.00;100677.00;4992132;28;20271;-71
2023/08/13 03:56:47;;;;;;;11.23;3.97;;;;;;;16.64;100.00;100670.78;4990280;28;20687;-71
2023/08/13 03:59:13;;;;;;;5.63;3.67;;;;;;;16.72;100.00;100679.66;4990256;28;20743;-71
2023/08/13 04:01:40;;;;;;;6.57;4.07;;;;;;;16.67;100.00;100681.50;4984321;28;20283;-71
2023/08/13 04:04:06;;;;;;;5.47;3.40;;;;;;;16.61;100.00;100676.16;4985594;28;20200;-71
2023/08/13 04:06:34;;;;;;;4.70;3.43;;;;;;;16.57;100.00;100677.06;5028574;23;20230;-69
2023/08/13 04:09:01;;;;;;;4.47;3.80;;;;;;;16.55;100.00;100681.53;5009721;28;20208;-69
2023/08/13 04:11:27;;;;;;;5.57;3.63;;;;;;;16.53;100.00;100678.00;5003448;28;20771;-69
2023/08/13 04:13:54;;;;;;;7.00;3.93;;;;;;;16.64;100.00;100683.25;5008817;28;20294;-69
2023/08/13 04:16:20;;;;;;;6.93;4.00;;;;;;;16.67;100.00;100676.13;5001052;28;20220;-69
2023/08/13 04:18:47;;;;;;;6.37;3.50;;;;;;;16.69;100.00;100678.81;4990245;28;20584;-69
2023/08/13 04:21:13;;;;;;;6.10;3.33;;;;;;;16.63;100.00;100681.50;4989877;28;20237;-70
2023/08/13 04:23:39;;;;;;;8.97;3.40;;;;;;;16.62;100.00;100683.28;4998082;28;20254;-70
2023/08/13 04:26:06;;;;;;;7.80;3.57;;;;;;;16.61;100.00;100681.50;5009843;28;20282;-70
2023/08/13 04:28:32;;;;;;;5.27;3.70;;;;;;;16.51;100.00;100679.78;4973811;28;20208;-69
2023/08/13 04:30:59;;;;;;;8.20;3.77;;;;;;;16.51;100.00;100685.13;4990118;28;20259;-69
2023/08/13 04:33:25;;;;;;;5.23;3.40;;;;;;;16.50;100.00;100686.03;4982204;28;20638;-69
2023/08/13 04:35:53;;;;;;;4.23;2.90;;;;;;;16.49;100.00;100690.50;5011527;28;20231;-69
2023/08/13 04:38:21;;;;;;;5.77;2.97;;;;;;;16.50;100.00;100692.28;5012932;28;20208;-70
2023/08/13 04:40:48;;;;;;;6.10;3.43;;;;;;;16.52;100.00;100692.25;5001071;28;20203;-70
2023/08/13 04:43:15;;;;;;;8.27;4.00;;;;;;;16.69;100.00;100687.72;4993722;28;20212;-70
2023/08/13 04:45:47;;;;;;;4.37;3.60;;;;;;;16.82;100.00;100677.84;4992767;28;20213;-69
2023/08/13 04:48:37;;;;;;;6.30;3.43;;;;;;;16.87;100.00;100678.69;5012770;28;20223;-70
2023/08/13 04:51:04;;;;;;;10.57;3.70;;;;;;;16.91;100.00;100684.00;4993661;28;20232;-70
2023/08/13 04:53:30;;;;;;;9.03;3.70;;;;;;;16.95;100.00;100681.28;4993459;28;20205;-70
2023/08/13 04:55:57;;;;;;;6.50;3.70;;;;;;;16.96;100.00;100686.63;4977965;28;20229;-69
2023/08/13 04:58:23;;;;;;;4.10;3.27;;;;;;;16.95;100.00;100686.66;5010699;28;20613;-69
2023/08/13 05:00:50;;;;;;;8.40;3.50;;;;;;;16.97;100.00;100687.53;4983002;28;20209;-69
2023/08/13 05:03:16;;;;;;;8.77;3.67;;;;;;;16.99;100.00;100697.31;4975975;28;20642;-69
2023/08/13 05:05:42;;;;;;;5.23;3.30;;;;;;;16.96;100.00;100685.75;4993290;28;20216;-70
2023/08/13 05:08:09;;;;;;;6.17;3.27;;;;;;;16.97;100.00;100685.72;5005197;28;20223;-69
2023/08/13 05:10:35;;;;;;;4.73;3.40;;;;;;;17.03;100.00;100692.81;5009897;28;20230;-69
2023/08/13 05:13:03;;;;;;;7.43;3.40;;;;;;;17.06;100.00;100696.34;4993105;28;20204;-70
2023/08/13 05:15:30;;;;;;;5.00;3.27;;;;;;;17.15;100.00;100696.28;4975678;28;20225;-69
2023/08/13 05:17:57;;;;;;;5.63;2.97;;;;;;;17.20;100.00;100693.56;4999591;28;20204;-69
2023/08/13 05:20:24;;;;;;;5.40;3.00;;;;;;;17.29;100.00;100698.84;5010879;28;20551;-69
2023/08/13 05:22:51;;;;;;;3.63;3.00;;;;;;;17.42;100.00;100692.47;4992932;28;20203;-69
2023/08/13 05:25:17;;;;;;;5.87;2.90;;;;;;;17.52;100.00;100693.25;4992648;28;20485;-68
2023/08/13 05:27:44;;;;;;;3.57;2.77;;;;;;;17.61;100.00;100687.81;4994717;28;20208;-69
2023/08/13 05:30:10;;;;;;;6.73;3.23;;;;;;;17.63;100.00;100694.06;5011978;28;20208;-69
2023/08/13 05:32:37;;;;;;;3.13;2.73;;;;;;;17.70;100.00;100689.56;5001599;28;20209;-69
2023/08/13 05:35:03;;;;;;;4.93;2.80;;;;;;;17.74;100.00;100692.19;4992636;28;20708;-70
2023/08/13 05:37:30;;;;;;;4.10;2.60;;;;;;;17.86;100.00;100691.13;4992526;28;20213;-70
2023/08/13 05:39:56;;;;;;;3.40;2.47;;;;;;;18.01;100.00;100693.66;5008642;28;20299;-70
2023/08/13 05:42:23;;;;;;;7.67;2.67;;;;;;;18.13;100.00;100695.28;5003278;28;20220;-69
2023/08/13 05:44:49;;;;;;;6.57;2.27;;;;;;;18.20;100.00;100694.31;4992214;28;20665;-70
2023/08/13 05:47:15;;;;;;;7.23;2.17;;;;;;;18.31;100.00;100688.78;4992607;28;20231;-70
2023/08/13 05:49:42;;;;;;;8.23;2.33;;;;;;;18.43;100.00;100702.94;5002467;28;20718;-69
2023/08/13 05:52:08;;;;;;;3.88;2.15;;;;;;;18.45;100.00;100700.25;5005076;28;20200;-70
2023/08/13 05:54:35;;;;;;;3.13;2.10;;;;;;;18.59;100.00;100703.59;4992093;28;20209;-69
2023/08/13 05:57:01;;;;;;;7.70;2.60;;;;;;;18.78;100.00;100699.75;4992193;28;20220;-70
2023/08/13 05:59:28;;;;;;;6.57;2.30;;;;;;;18.96;100.00;100689.66;4998071;28;20283;-69
2023/08/13 06:01:55;;;;;;;3.95;2.50;;;;;;;19.01;100.00;100693.16;5011527;28;20732;-70
2023/08/13 06:04:22;;;;;;;3.47;2.30;;;;;;;19.08;100.00;100694.81;4977464;28;20287;-70
2023/08/13 06:06:48;;;;;;;4.40;2.10;;;;;;;19.26;100.00;100702.59;4992447;28;20225;-69
2023/08/13 06:09:14;;;;;;;4.32;2.28;;;;;;;19.39;100.00;100701.44;4988516;28;20208;-70
2023/08/13 06:11:41;;;;;;;7.10;2.70;;;;;;;19.42;100.00;100709.44;5011346;28;20258;-70
2023/08/13 06:14:07;;;;;;;3.17;2.13;;;;;;;19.71;100.00;100698.22;4997108;28;20216;-69
2023/08/13 06:16:34;;;;;;;4.55;2.20;;;;;;;19.91;100.00;100697.81;4991956;28;20701;-70
2023/08/13 06:19:00;;;;;;;4.60;2.10;;;;;;;20.11;100.00;100708.19;4992237;28;20211;-70
2023/08/13 06:21:27;;;;;;;2.08;1.88;;;;;;;20.26;100.00;100706.97;4999856;28;20207;-70
2023/08/13 06:23:53;;;;;;;3.53;2.45;;;;;;;20.46;100.00;100702.09;5006696;28;20205;-70
2023/08/13 06:26:19;;;;;;;3.03;2.00;;;;;;;20.56;100.00;100695.56;4991618;28;20308;-69
2023/08/13 06:28:46;;;;;;;4.15;2.28;;;;;;;20.89;100.00;100701.09;4991749;28;20201;-71
2023/08/13 06:31:12;;;;;;;3.00;2.50;;;;;;;21.10;100.00;100700.56;5000347;28;20654;-70
2023/08/13 06:33:57;;;;;;;7.18;4.32;;;;;;;21.32;100.00;100708.16;5006129;28;20212;-70
2023/08/13 06:36:24;;;;;;;6.18;4.00;;;;;;;21.38;100.00;100703.47;5001663;28;20254;-70
2023/08/13 06:38:50;;;;;;;7.18;3.45;;;;;;;21.48;100.00;100710.38;5006909;28;20205;-70
2023/08/13 06:41:17;;;;;;;6.03;3.65;;;;;;;21.48;100.00;100699.59;4991722;28;20574;-70
2023/08/13 06:43:43;;;;;;;7.18;3.80;;;;;;;21.59;100.00;100707.41;4973838;28;20208;-70
2023/08/13 06:46:09;;;;;;;7.35;3.03;;;;;;;21.75;100.00;100707.91;4996427;28;20232;-70
2023/08/13 06:48:38;;;;;;;7.85;3.35;;;;;;;21.82;100.00;100704.09;5010721;28;20208;-70
2023/08/13 06:51:04;;;;;;;4.10;3.30;;;;;;;21.97;100.00;100708.16;4996477;28;20683;-70
2023/08/13 06:53:31;;;;;;;6.63;3.53;;;;;;;22.06;100.00;100702.56;4990810;28;20325;-70
2023/08/13 06:56:00;;;;;;;7.05;3.63;;;;;;;22.34;100.00;100708.03;4990061;28;20593;-70
2023/08/13 06:58:27;;;;;;;6.43;3.08;;;;;;;22.44;100.00;100705.03;4993245;28;20208;-70
2023/08/13 07:00:53;;;;;;;6.45;4.35;;;;;;;22.63;100.00;100715.25;4998417;28;20299;-70
2023/08/13 07:03:20;;;;;;;6.30;4.18;;;;;;;22.70;100.00;100717.69;4991265;28;20300;-71
2023/08/13 07:05:46;;;;;;;10.82;4.68;;;;;;;22.91;100.00;100723.41;4974987;28;20220;-70
2023/08/13 07:08:13;;;;;;;6.43;4.68;;;;;;;22.94;100.00;100709.78;5006130;28;20204;-70
2023/08/13 07:10:40;;;;;;;9.82;3.88;;;;;;;23.26;100.00;100715.03;4982509;28;20209;-70
2023/08/13 07:13:07;;;;;;;4.68;3.25;;;;;;;23.47;100.00;100717.94;4973904;28;20212;-70
2023/08/13 07:15:33;;;;;;;5.75;3.17;;;;;;;23.66;100.00;100719.97;4990647;28;20225;-70
2023/08/13 07:18:00;;;;;;;6.20;2.42;;;;;;;24.13;100.00;100720.09;5009014;28;20225;-71
2023/08/13 07:20:26;;;;;;;6.78;2.53;;;;;;;23.93;100.00;100720.78;5019724;28;20214;-71
2023/08/13 07:22:58;;;;;;;6.53;2.72;;;;;;;23.47;100.00;100718.81;5000221;28;20211;-70
2023/08/13 07:25:24;;;;;;;7.93;2.67;;;;;;;23.73;100.00;100715.25;5002332;28;20225;-70
2023/08/13 07:27:52;;;;;;;4.80;2.75;;;;;;;23.88;100.00;100708.38;4996868;28;20287;-70
2023/08/13 07:30:18;;;;;;;5.25;3.05;;;;;;;23.80;100.00;100724.00;5010583;28;20733;-70
2023/08/13 07:32:45;;;;;;;5.38;3.03;;;;;;;23.36;100.00;100712.91;4990664;28;20208;-70
2023/08/13 07:35:12;;;;;;;5.50;3.05;;;;;;;23.48;100.00;100711.56;4990346;28;20224;-70
2023/08/13 07:37:39;;;;;;;4.90;2.85;;;;;;;24.13;100.00;100706.56;4991458;28;20205;-70
2023/08/13 07:40:12;;;;;;;4.20;2.80;;;;;;;25.09;100.00;100715.47;5010066;28;20212;-70
2023/08/13 07:42:40;;;;;;;2.47;2.28;;;;;;;25.35;100.00;100717.09;4999693;28;20212;-68
2023/08/13 07:45:08;;;;;;;5.18;2.70;;;;;;;26.24;100.00;100714.97;4990496;28;20228;-71
2023/08/13 07:47:36;;;;;;;4.20;2.40;;;;;;;26.26;100.00;100721.22;4991842;28;21752;-72
2023/08/13 07:50:04;;;;;;;4.13;2.22;;;;;;;26.95;100.00;100734.28;5007372;28;20208;-70
2023/08/13 07:52:31;;;;;;;3.55;2.45;;;;;;;26.96;100.00;100728.78;5000743;28;20205;-71
2023/08/13 07:54:58;;;;;;;7.15;2.30;;;;;;;26.23;100.00;100722.25;4990382;28;20237;-71
2023/08/13 07:57:24;;;;;;;3.13;2.15;;;;;;;27.10;100.00;100720.84;4990302;28;20251;-70
2023/08/13 07:59:51;;;;;;;5.68;2.22;;;;;;;27.42;100.00;100716.50;5001261;28;20283;-70
2023/08/13 08:02:17;;;;;;;4.43;2.10;;;;;;;27.69;100.00;100716.09;5002314;28;20563;-71
2023/08/13 08:04:45;;;;;;;4.30;2.30;;;;;;;25.96;100.00;100718.06;4990296;28;20207;-71
2023/08/13 08:07:11;;;;;;;3.55;2.20;;;;;;;25.66;100.00;100716.69;4991309;28;20284;-71
2023/08/13 08:09:38;;;;;;;3.30;2.45;;;;;;;25.14;100.00;100718.88;4982887;28;20200;-70
2023/08/13 08:12:05;;;;;;;2.72;2.35;;;;;;;24.74;100.00;100715.03;5013766;28;20236;-71
2023/08/13 08:14:31;;;;;;;7.60;2.42;;;;;;;24.90;100.00;100704.50;4995958;28;20642;-70
2023/08/13 08:17:04;;;;;;;3.30;2.28;;;;;;;24.56;100.00;100723.91;4994030;28;20256;-70
2023/08/13 08:19:34;;;;;;;2.88;2.20;;;;;;;24.19;100.00;100714.44;4995785;28;20208;-71
2023/08/13 08:22:01;;;;;;;2.85;2.20;;;;;;;24.09;100.00;100717.56;5013895;28;20200;-71
2023/08/13 08:24:27;;;;;;;7.25;2.47;;;;;;;24.07;100.00;100717.59;4979079;28;20591;-71
2023/08/13 08:26:54;;;;;;;3.35;2.50;;;;;;;23.99;100.00;100716.97;4993968;28;20220;-71
2023/08/13 08:29:20;;;;;;;5.07;2.22;;;;;;;24.40;100.00;100717.28;4993779;28;20239;-71
2023/08/13 08:31:46;;;;;;;4.90;2.72;;;;;;;24.85;100.00;100718.22;4993434;28;20235;-71
2023/08/13 08:34:13;;;;;;;2.72;2.20;;;;;;;25.33;100.00;100710.88;5006588;28;20200;-71
2023/08/13 08:36:40;;;;;;;4.43;2.40;;;;;;;25.15;100.00;100716.09;4993826;28;20677;-71
2023/08/13 08:39:06;;;;;;;2.83;2.30;;;;;;;24.92;100.00;100708.91;5001803;28;20657;-71
2023/08/13 08:41:36;;;;;;;2.78;2.28;;;;;;;24.97;100.00;100711.41;5004538;28;20200;-71
2023/08/13 08:44:05;;;;;;;3.88;2.08;;;;;;;25.24;100.00;100709.44;5007991;28;20219;-71
2023/08/13 08:46:33;;;;;;;2.85;2.20;;;;;;;25.41;100.00;100715.00;4993792;28;20216;-71
2023/08/13 08:49:00;;;;;;;2.90;2.20;;;;;;;25.75;100.00;100702.75;4993996;28;20288;-70
2023/08/13 08:51:26;;;;;;;2.30;2.10;;;;;;;26.04;100.00;100706.88;5000346;28;20211;-70
2023/08/13 08:53:53;;;;;;;2.20;1.90;;;;;;;25.96;100.00;100706.31;5012842;28;20204;-71
2023/08/13 08:56:21;;;;;;;3.67;2.30;;;;;;;26.12;100.00;100705.56;4997259;28;20231;-71
2023/08/13 08:58:49;;;;;;;3.58;2.17;;;;;;;26.02;100.00;100708.78;4993432;28;20208;-72
2023/08/13 09:01:16;;;;;;;3.00;2.00;;;;;;;26.45;100.00;100696.84;4995159;28;20212;-71
2023/08/13 09:03:42;;;;;;;4.15;1.83;;;;;;;26.45;100.00;100699.56;5012692;28;20338;-71
2023/08/13 09:06:09;;;;;;;7.53;2.00;;;;;;;26.61;100.00;100694.25;4998687;28;20324;-72
2023/08/13 09:08:46;;;;;;;4.35;2.20;;;;;;;26.63;100.00;100690.50;4993556;28;20250;-71
2023/08/13 09:11:13;;;;;;;2.78;2.10;;;;;;;26.79;100.00;100688.81;4992621;28;20215;-71
2023/08/13 09:13:49;;;;;;;3.67;1.90;;;;;;;27.07;100.00;100698.34;5008419;28;20212;-71
2023/08/13 09:16:16;;;;;;;4.35;1.98;;;;;;;26.51;100.00;100696.53;5005548;28;20232;-71
2023/08/13 09:18:43;;;;;;;5.45;2.20;;;;;;;26.68;100.00;100699.31;4992578;28;20205;-71
2023/08/13 09:21:09;;;;;;;3.55;2.03;;;;;;;26.85;100.00;100691.25;4993032;28;20213;-72
2023/08/13 09:23:39;;;;;;;4.75;2.22;;;;;;;27.17;100.00;100689.66;4998236;28;20205;-71
2023/08/13 09:26:06;;;;;;;2.92;2.15;;;;;;;27.66;100.00;100687.19;5006412;28;20254;-71
2023/08/13 09:28:32;;;;;;;2.83;2.20;;;;;;;28.01;100.00;100689.84;4990379;28;20259;-71
2023/08/13 09:30:59;;;;;;;4.85;2.40;;;;;;;28.14;75.13;100681.91;5012575;28;20204;-71
2023/08/13 09:33:26;;;;;;;3.58;2.13;;;;;;;28.21;73.05;100680.59;4995824;28;20208;-71
2023/08/13 09:35:52;;;;;;;2.88;1.75;;;;;;;28.58;69.86;100690.38;5011936;28;20783;-71
2023/08/13 09:38:20;;;;;;;2.70;2.00;;;;;;;28.03;69.11;100680.66;4996719;28;20300;-71
2023/08/13 09:40:47;;;;;;;3.03;2.00;;;;;;;28.02;68.31;100678.91;4975097;28;20209;-71
2023/08/13 09:43:19;;;;;;;3.72;1.90;;;;;;;27.82;70.12;100672.75;4975156;28;20204;-71
2023/08/13 09:45:46;;;;;;;4.57;2.35;;;;;;;27.36;71.91;100670.56;5005913;28;20227;-71
2023/08/13 09:48:17;;;;;;;2.05;1.85;;;;;;;27.56;71.77;100671.38;5012353;28;20199;-71
2023/08/13 09:50:48;;;;;;;2.72;2.00;;;;;;;27.71;70.11;100670.63;4993684;28;20207;-71
2023/08/13 09:53:15;;;;;;;4.03;2.00;;;;;;;27.65;69.21;100671.81;5011913;28;20200;-71
2023/08/13 09:55:50;;;;;;;4.35;1.90;;;;;;;27.80;69.77;100666.50;5002007;28;20272;-71
2023/08/13 09:58:18;;;;;;;2.47;2.10;;;;;;;27.39;71.44;100666.81;4992772;28;20216;-71
2023/08/13 10:00:46;;;;;;;3.80;2.30;;;;;;;27.57;72.07;100664.97;4976529;28;20256;-72
2023/08/13 10:03:14;;;;;;;2.88;1.77;;;;;;;27.69;69.15;100657.09;5009141;28;20314;-72
2023/08/13 10:08:19;;;;;;;2.90;2.08;;;;;;;27.46;67.99;100666.41;5010285;28;20349;-72
2023/08/13 10:10:46;;;;;;;5.07;2.20;;;;;;;27.62;68.17;100671.06;5009810;28;20215;-72
2023/08/13 10:13:12;;;;;;;5.25;2.20;;;;;;;27.98;65.75;100670.94;5017017;28;20219;-72
2023/08/13 10:15:39;;;;;;;5.40;1.90;;;;;;;27.35;64.31;100674.25;5009412;28;20616;-72
2023/08/13 10:18:05;;;;;;;4.57;2.25;;;;;;;27.54;65.55;100673.28;4974588;28;20252;-72
2023/08/13 10:20:32;;;;;;;4.05;1.92;;;;;;;27.83;65.33;100669.06;4991347;28;20247;-72
2023/08/13 10:23:01;;;;;;;4.10;2.22;;;;;;;28.03;65.39;100677.06;4981840;28;20386;-72
2023/08/13 10:25:34;;;;;;;3.70;2.35;;;;;;;28.20;64.16;100667.94;5010710;28;20279;-72
2023/08/13 10:28:28;;;;;;;3.00;2.10;;;;;;;27.87;63.18;100668.81;4982370;28;20205;-72
2023/08/13 10:31:24;;;;;;;5.30;2.20;;;;;;;27.49;61.71;100670.81;4990365;28;20713;-72
2023/08/13 10:34:06;;;;;;;4.05;2.40;;;;;;;27.16;63.26;100663.41;5002403;28;20193;-72
2023/08/13 10:36:54;;;;;;;3.65;2.10;;;;;;;27.46;63.99;100665.53;5002028;28;20496;-71
2023/08/13 10:39:32;;;;;;;4.55;2.58;;;;;;;27.83;61.24;100669.94;4999778;28;20291;-72
2023/08/13 10:41:59;;;;;;;7.10;2.35;;;;;;;28.15;61.95;100667.31;4991520;28;20200;-71
2023/08/13 10:44:29;;;;;;;4.18;2.58;;;;;;;28.09;62.15;100666.72;5002980;28;20211;-72
2023/08/13 10:46:57;;;;;;;4.30;2.33;;;;;;;27.85;61.23;100667.16;4999118;28;20228;-72
2023/08/13 10:49:27;;;;;;;4.85;3.05;;;;;;;28.30;61.37;100670.09;4991533;28;20490;-72
2023/08/13 10:51:54;;;;;;;6.03;3.85;;;;;;;28.60;58.98;100664.78;4991019;28;20197;-71
2023/08/13 10:54:24;;;;;;;5.20;2.58;;;;;;;28.45;57.60;100664.78;4998530;28;20200;-72
2023/08/13 10:56:57;;;;;;;5.15;2.40;;;;;;;28.19;58.80;100661.63;5008156;28;20707;-72
2023/08/13 10:59:32;;;;;;;3.58;2.30;;;;;;;28.36;57.32;100671.59;5003551;28;20205;-72
2023/08/13 11:02:24;;;;;;;3.42;2.40;;;;;;;28.14;57.20;100660.13;4991319;28;20231;-72
2023/08/13 11:04:51;;;;;;;5.90;2.72;;;;;;;28.51;56.85;100670.75;4993467;28;20288;-71
2023/08/13 11:07:20;;;;;;;4.38;2.60;;;;;;;28.87;55.56;100669.66;5003179;28;20228;-71
2023/08/13 11:09:46;;;;;;;5.40;2.80;;;;;;;28.85;52.96;100663.44;4990537;28;20206;-72
2023/08/13 11:12:13;;;;;;;4.25;2.45;;;;;;;28.33;53.54;100667.22;4991275;28;20207;-72
2023/08/13 11:14:40;;;;;;;4.35;2.15;;;;;;;28.49;53.42;100671.81;4990760;28;20205;-72
2023/08/13 11:17:07;;;;;;;3.72;2.08;;;;;;;28.85;52.20;100667.03;4997073;28;20235;-72
2023/08/13 11:19:34;;;;;;;2.53;1.70;;;;;;;29.18;51.18;100675.06;5009379;28;20208;-71
2023/08/13 11:22:01;;;;;;;5.00;2.05;;;;;;;29.19;51.38;100670.47;4990214;28;20205;-71
2023/08/13 11:24:31;;;;;;;5.18;1.98;;;;;;;29.31;51.88;100678.84;4990246;28;20208;-73
2023/08/13 11:26:58;;;;;;;4.60;1.98;;;;;;;28.71;51.56;100670.50;4992823;28;20282;-72